sensor_id;sensor_type;location;lat;lon;timestamp;P1;durP1;ratioP1;P2;durP2;ratioP2
10365;SDS011;5229;41.820;23.490;2022-07-12T00:01:41;2.07;;;1.60;;
10365;SDS011;5229;41.820;23.490;2022-07-12T00:04:08;3.07;;;1.50;;
10365;SDS011;5229;41.820;23.490;2022-07-12T00:06:36;1.37;;;1.27;;
10365;SDS011;5229;41.820;23.490;2022-07-12T00:09:03;1.80;;;1.70;;
10365;SDS011;5229;41.820;23.490;2022-07-12T00:11:30;1.27;;;1.23;;
10365;SDS011;5229;41.820;23.490;2022-07-12T00:13:57;1.50;;;1.40;;
10365;SDS011;5229;41.820;23.490;2022-07-12T00:16:23;1.30;;;1.20;;
10365;SDS011;5229;41.820;23.490;2022-07-12T00:18:50;1.87;;;1.50;;
10365;SDS011;5229;41.820;23.490;2022-07-12T00:21:17;1.83;;;1.60;;
10365;SDS011;5229;41.820;23.490;2022-07-12T00:23:45;1.50;;;1.40;;
10365;SDS011;5229;41.820;23.490;2022-07-12T00:26:12;1.50;;;1.40;;
10365;SDS011;5229;41.820;23.490;2022-07-12T00:28:39;1.73;;;1.33;;
10365;SDS011;5229;41.820;23.490;2022-07-12T00:31:06;2.23;;;1.50;;
10365;SDS011;5229;41.820;23.490;2022-07-12T00:33:33;1.63;;;1.53;;
10365;SDS011;5229;41.820;23.490;2022-07-12T00:36:00;1.77;;;1.47;;
10365;SDS011;5229;41.820;23.490;2022-07-12T00:38:27;1.80;;;1.70;;
10365;SDS011;5229;41.820;23.490;2022-07-12T00:40:55;1.80;;;1.70;;
10365;SDS011;5229;41.820;23.490;2022-07-12T00:43:23;1.73;;;1.63;;
10365;SDS011;5229;41.820;23.490;2022-07-12T00:45:50;1.60;;;1.50;;
10365;SDS011;5229;41.820;23.490;2022-07-12T00:48:16;3.23;;;1.90;;
10365;SDS011;5229;41.820;23.490;2022-07-12T00:50:44;2.30;;;1.70;;
10365;SDS011;5229;41.820;23.490;2022-07-12T00:53:11;4.17;;;2.07;;
10365;SDS011;5229;41.820;23.490;2022-07-12T00:55:40;1.83;;;1.70;;
10365;SDS011;5229;41.820;23.490;2022-07-12T00:58:08;1.70;;;1.60;;
10365;SDS011;5229;41.820;23.490;2022-07-12T01:00:35;1.57;;;1.47;;
10365;SDS011;5229;41.820;23.490;2022-07-12T01:03:02;1.70;;;1.60;;
10365;SDS011;5229;41.820;23.490;2022-07-12T01:05:29;4.60;;;1.53;;
10365;SDS011;5229;41.820;23.490;2022-07-12T01:07:57;3.83;;;1.70;;
10365;SDS011;5229;41.820;23.490;2022-07-12T01:10:24;1.80;;;1.70;;
10365;SDS011;5229;41.820;23.490;2022-07-12T01:12:51;1.63;;;1.40;;
10365;SDS011;5229;41.820;23.490;2022-07-12T01:15:19;4.33;;;2.10;;
10365;SDS011;5229;41.820;23.490;2022-07-12T01:17:47;2.27;;;1.97;;
10365;SDS011;5229;41.820;23.490;2022-07-12T01:20:14;1.87;;;1.70;;
10365;SDS011;5229;41.820;23.490;2022-07-12T01:22:46;2.23;;;1.60;;
10365;SDS011;5229;41.820;23.490;2022-07-12T01:25:18;3.73;;;2.03;;
10365;SDS011;5229;41.820;23.490;2022-07-12T01:27:44;1.80;;;1.70;;
10365;SDS011;5229;41.820;23.490;2022-07-12T01:30:11;2.47;;;2.27;;
10365;SDS011;5229;41.820;23.490;2022-07-12T01:32:38;2.20;;;1.90;;
10365;SDS011;5229;41.820;23.490;2022-07-12T01:35:06;2.00;;;1.80;;
10365;SDS011;5229;41.820;23.490;2022-07-12T01:37:33;1.57;;;1.47;;
10365;SDS011;5229;41.820;23.490;2022-07-12T01:40:04;2.13;;;1.93;;
10365;SDS011;5229;41.820;23.490;2022-07-12T01:42:32;1.80;;;1.70;;
10365;SDS011;5229;41.820;23.490;2022-07-12T01:44:59;2.67;;;1.93;;
10365;SDS011;5229;41.820;23.490;2022-07-12T01:47:26;2.20;;;2.00;;
10365;SDS011;5229;41.820;23.490;2022-07-12T01:49:54;1.97;;;1.87;;
10365;SDS011;5229;41.820;23.490;2022-07-12T01:52:21;2.00;;;1.90;;
10365;SDS011;5229;41.820;23.490;2022-07-12T01:54:48;2.27;;;2.07;;
10365;SDS011;5229;41.820;23.490;2022-07-12T01:57:17;2.70;;;2.30;;
10365;SDS011;5229;41.820;23.490;2022-07-12T01:59:45;2.10;;;1.90;;
10365;SDS011;5229;41.820;23.490;2022-07-12T02:02:12;1.90;;;1.80;;
10365;SDS011;5229;41.820;23.490;2022-07-12T02:04:39;1.90;;;1.80;;
10365;SDS011;5229;41.820;23.490;2022-07-12T02:07:06;2.20;;;2.10;;
10365;SDS011;5229;41.820;23.490;2022-07-12T02:09:33;1.90;;;1.80;;
10365;SDS011;5229;41.820;23.490;2022-07-12T02:11:59;3.43;;;2.30;;
10365;SDS011;5229;41.820;23.490;2022-07-12T02:14:28;2.93;;;2.40;;
10365;SDS011;5229;41.820;23.490;2022-07-12T02:16:55;2.10;;;1.93;;
10365;SDS011;5229;41.820;23.490;2022-07-12T02:19:21;2.57;;;2.37;;
10365;SDS011;5229;41.820;23.490;2022-07-12T02:21:48;2.37;;;2.17;;
10365;SDS011;5229;41.820;23.490;2022-07-12T02:24:15;2.43;;;2.03;;
10365;SDS011;5229;41.820;23.490;2022-07-12T02:26:42;3.23;;;2.23;;
10365;SDS011;5229;41.820;23.490;2022-07-12T02:29:09;2.30;;;2.10;;
10365;SDS011;5229;41.820;23.490;2022-07-12T02:31:37;2.17;;;1.97;;
10365;SDS011;5229;41.820;23.490;2022-07-12T02:34:05;2.00;;;1.80;;
10365;SDS011;5229;41.820;23.490;2022-07-12T02:36:32;3.17;;;1.93;;
10365;SDS011;5229;41.820;23.490;2022-07-12T02:38:59;2.00;;;1.80;;
10365;SDS011;5229;41.820;23.490;2022-07-12T02:41:28;2.90;;;1.77;;
10365;SDS011;5229;41.820;23.490;2022-07-12T02:43:54;1.70;;;1.60;;
10365;SDS011;5229;41.820;23.490;2022-07-12T02:46:21;2.10;;;2.00;;
10365;SDS011;5229;41.820;23.490;2022-07-12T02:48:49;1.60;;;1.50;;
10365;SDS011;5229;41.820;23.490;2022-07-12T02:51:17;1.63;;;1.53;;
10365;SDS011;5229;41.820;23.490;2022-07-12T02:53:44;1.87;;;1.67;;
10365;SDS011;5229;41.820;23.490;2022-07-12T02:56:11;1.90;;;1.40;;
10365;SDS011;5229;41.820;23.490;2022-07-12T02:58:38;1.83;;;1.60;;
10365;SDS011;5229;41.820;23.490;2022-07-12T03:01:05;2.20;;;1.73;;
10365;SDS011;5229;41.820;23.490;2022-07-12T03:03:32;3.33;;;1.70;;
10365;SDS011;5229;41.820;23.490;2022-07-12T03:06:00;2.70;;;1.23;;
10365;SDS011;5229;41.820;23.490;2022-07-12T03:08:27;1.77;;;1.50;;
10365;SDS011;5229;41.820;23.490;2022-07-12T03:10:54;2.20;;;1.47;;
10365;SDS011;5229;41.820;23.490;2022-07-12T03:13:21;1.60;;;1.10;;
10365;SDS011;5229;41.820;23.490;2022-07-12T03:15:47;1.97;;;1.30;;
10365;SDS011;5229;41.820;23.490;2022-07-12T03:18:15;1.87;;;1.33;;
10365;SDS011;5229;41.820;23.490;2022-07-12T03:20:42;1.40;;;1.30;;
10365;SDS011;5229;41.820;23.490;2022-07-12T03:23:10;1.50;;;1.30;;
10365;SDS011;5229;41.820;23.490;2022-07-12T03:25:37;1.33;;;1.23;;
10365;SDS011;5229;41.820;23.490;2022-07-12T03:28:04;1.10;;;1.00;;
10365;SDS011;5229;41.820;23.490;2022-07-12T03:30:31;2.73;;;1.77;;
10365;SDS011;5229;41.820;23.490;2022-07-12T03:32:58;1.60;;;1.40;;
10365;SDS011;5229;41.820;23.490;2022-07-12T03:35:24;1.90;;;1.27;;
10365;SDS011;5229;41.820;23.490;2022-07-12T03:37:51;1.00;;;1.00;;
10365;SDS011;5229;41.820;23.490;2022-07-12T03:40:20;2.87;;;1.43;;
10365;SDS011;5229;41.820;23.490;2022-07-12T03:42:48;1.17;;;1.07;;
10365;SDS011;5229;41.820;23.490;2022-07-12T03:45:15;1.20;;;1.10;;
10365;SDS011;5229;41.820;23.490;2022-07-12T03:47:42;1.23;;;1.13;;
10365;SDS011;5229;41.820;23.490;2022-07-12T03:50:10;1.87;;;1.30;;
10365;SDS011;5229;41.820;23.490;2022-07-12T03:52:38;3.33;;;2.00;;
10365;SDS011;5229;41.820;23.490;2022-07-12T03:55:06;1.90;;;1.80;;
10365;SDS011;5229;41.820;23.490;2022-07-12T03:57:35;2.00;;;1.87;;
10365;SDS011;5229;41.820;23.490;2022-07-12T04:00:03;1.97;;;1.63;;
10365;SDS011;5229;41.820;23.490;2022-07-12T04:02:33;2.10;;;1.80;;
10365;SDS011;5229;41.820;23.490;2022-07-12T04:05:00;2.07;;;1.87;;
10365;SDS011;5229;41.820;23.490;2022-07-12T04:07:26;1.77;;;1.67;;
10365;SDS011;5229;41.820;23.490;2022-07-12T04:09:53;1.53;;;1.33;;
10365;SDS011;5229;41.820;23.490;2022-07-12T04:12:20;1.53;;;1.43;;
10365;SDS011;5229;41.820;23.490;2022-07-12T04:14:48;6.37;;;1.90;;
10365;SDS011;5229;41.820;23.490;2022-07-12T04:17:15;1.60;;;1.50;;
10365;SDS011;5229;41.820;23.490;2022-07-12T04:19:42;1.53;;;1.40;;
10365;SDS011;5229;41.820;23.490;2022-07-12T04:22:08;1.83;;;1.70;;
10365;SDS011;5229;41.820;23.490;2022-07-12T04:24:35;1.70;;;1.60;;
10365;SDS011;5229;41.820;23.490;2022-07-12T04:27:02;1.60;;;1.50;;
10365;SDS011;5229;41.820;23.490;2022-07-12T04:29:29;2.47;;;2.27;;
10365;SDS011;5229;41.820;23.490;2022-07-12T04:31:58;2.57;;;1.90;;
10365;SDS011;5229;41.820;23.490;2022-07-12T04:34:24;1.80;;;1.60;;
10365;SDS011;5229;41.820;23.490;2022-07-12T04:36:51;1.63;;;1.53;;
10365;SDS011;5229;41.820;23.490;2022-07-12T04:39:19;1.50;;;1.40;;
10365;SDS011;5229;41.820;23.490;2022-07-12T04:41:46;2.90;;;1.60;;
10365;SDS011;5229;41.820;23.490;2022-07-12T04:44:13;2.00;;;1.80;;
10365;SDS011;5229;41.820;23.490;2022-07-12T04:46:39;2.47;;;2.00;;
10365;SDS011;5229;41.820;23.490;2022-07-12T04:49:08;3.00;;;2.00;;
10365;SDS011;5229;41.820;23.490;2022-07-12T04:51:35;1.97;;;1.80;;
10365;SDS011;5229;41.820;23.490;2022-07-12T04:54:01;2.80;;;2.20;;
10365;SDS011;5229;41.820;23.490;2022-07-12T04:56:28;2.77;;;1.90;;
10365;SDS011;5229;41.820;23.490;2022-07-12T04:58:55;2.23;;;1.37;;
10365;SDS011;5229;41.820;23.490;2022-07-12T05:01:22;2.10;;;1.57;;
10365;SDS011;5229;41.820;23.490;2022-07-12T05:03:50;2.23;;;1.57;;
10365;SDS011;5229;41.820;23.490;2022-07-12T05:06:18;1.70;;;1.37;;
10365;SDS011;5229;41.820;23.490;2022-07-12T05:08:45;2.53;;;1.63;;
10365;SDS011;5229;41.820;23.490;2022-07-12T05:11:12;6.80;;;1.80;;
10365;SDS011;5229;41.820;23.490;2022-07-12T05:13:38;2.37;;;1.50;;
10365;SDS011;5229;41.820;23.490;2022-07-12T05:16:06;3.33;;;2.10;;
10365;SDS011;5229;41.820;23.490;2022-07-12T05:18:34;1.83;;;1.70;;
10365;SDS011;5229;41.820;23.490;2022-07-12T05:21:01;2.97;;;1.73;;
10365;SDS011;5229;41.820;23.490;2022-07-12T05:23:30;5.53;;;2.00;;
10365;SDS011;5229;41.820;23.490;2022-07-12T05:25:57;2.93;;;1.87;;
10365;SDS011;5229;41.820;23.490;2022-07-12T05:28:23;3.50;;;1.63;;
10365;SDS011;5229;41.820;23.490;2022-07-12T05:30:50;2.87;;;1.90;;
10365;SDS011;5229;41.820;23.490;2022-07-12T05:33:17;2.87;;;1.83;;
10365;SDS011;5229;41.820;23.490;2022-07-12T05:35:44;4.30;;;1.80;;
10365;SDS011;5229;41.820;23.490;2022-07-12T05:38:11;1.87;;;1.60;;
10365;SDS011;5229;41.820;23.490;2022-07-12T05:40:39;3.27;;;1.53;;
10365;SDS011;5229;41.820;23.490;2022-07-12T05:43:05;4.93;;;1.90;;
10365;SDS011;5229;41.820;23.490;2022-07-12T05:45:32;11.70;;;2.20;;
10365;SDS011;5229;41.820;23.490;2022-07-12T05:47:59;2.87;;;1.80;;
10365;SDS011;5229;41.820;23.490;2022-07-12T05:50:26;1.70;;;1.60;;
10365;SDS011;5229;41.820;23.490;2022-07-12T05:52:53;1.57;;;1.47;;
10365;SDS011;5229;41.820;23.490;2022-07-12T05:55:38;2.50;;;1.70;;
10365;SDS011;5229;41.820;23.490;2022-07-12T05:58:05;1.73;;;1.40;;
10365;SDS011;5229;41.820;23.490;2022-07-12T06:00:32;1.70;;;1.60;;
10365;SDS011;5229;41.820;23.490;2022-07-12T06:02:59;1.70;;;1.60;;
10365;SDS011;5229;41.820;23.490;2022-07-12T06:05:26;3.77;;;1.97;;
10365;SDS011;5229;41.820;23.490;2022-07-12T06:07:53;1.63;;;1.43;;
10365;SDS011;5229;41.820;23.490;2022-07-12T06:10:20;2.50;;;1.43;;
10365;SDS011;5229;41.820;23.490;2022-07-12T06:12:48;2.43;;;1.67;;
10365;SDS011;5229;41.820;23.490;2022-07-12T06:15:15;1.60;;;1.43;;
10365;SDS011;5229;41.820;23.490;2022-07-12T06:17:42;1.10;;;1.10;;
10365;SDS011;5229;41.820;23.490;2022-07-12T06:20:09;1.47;;;1.30;;
10365;SDS011;5229;41.820;23.490;2022-07-12T06:22:37;2.50;;;1.43;;
10365;SDS011;5229;41.820;23.490;2022-07-12T06:25:04;4.07;;;1.70;;
10365;SDS011;5229;41.820;23.490;2022-07-12T06:27:32;1.97;;;1.30;;
10365;SDS011;5229;41.820;23.490;2022-07-12T06:30:00;1.87;;;1.50;;
10365;SDS011;5229;41.820;23.490;2022-07-12T06:32:26;3.93;;;1.57;;
10365;SDS011;5229;41.820;23.490;2022-07-12T06:34:53;1.87;;;1.10;;
10365;SDS011;5229;41.820;23.490;2022-07-12T06:37:21;1.30;;;1.20;;
10365;SDS011;5229;41.820;23.490;2022-07-12T06:39:48;2.10;;;1.40;;
10365;SDS011;5229;41.820;23.490;2022-07-12T06:42:14;1.70;;;1.20;;
10365;SDS011;5229;41.820;23.490;2022-07-12T06:44:41;1.30;;;1.20;;
10365;SDS011;5229;41.820;23.490;2022-07-12T06:47:10;1.60;;;1.50;;
10365;SDS011;5229;41.820;23.490;2022-07-12T06:49:36;1.40;;;1.30;;
10365;SDS011;5229;41.820;23.490;2022-07-12T06:52:04;2.30;;;1.63;;
10365;SDS011;5229;41.820;23.490;2022-07-12T06:54:31;1.40;;;1.20;;
10365;SDS011;5229;41.820;23.490;2022-07-12T06:56:58;1.23;;;1.10;;
10365;SDS011;5229;41.820;23.490;2022-07-12T06:59:25;2.45;;;1.52;;
10365;SDS011;5229;41.820;23.490;2022-07-12T07:01:51;1.55;;;1.30;;
10365;SDS011;5229;41.820;23.490;2022-07-12T07:04:22;2.20;;;1.20;;
10365;SDS011;5229;41.820;23.490;2022-07-12T07:06:49;1.80;;;1.10;;
10365;SDS011;5229;41.820;23.490;2022-07-12T07:09:16;1.20;;;1.10;;
10365;SDS011;5229;41.820;23.490;2022-07-12T07:11:44;2.58;;;1.40;;
10365;SDS011;5229;41.820;23.490;2022-07-12T07:14:11;1.90;;;1.35;;
10365;SDS011;5229;41.820;23.490;2022-07-12T07:16:38;5.30;;;1.55;;
10365;SDS011;5229;41.820;23.490;2022-07-12T07:19:05;2.45;;;1.80;;
10365;SDS011;5229;41.820;23.490;2022-07-12T07:21:33;1.55;;;1.45;;
10365;SDS011;5229;41.820;23.490;2022-07-12T07:24:00;2.28;;;1.20;;
10365;SDS011;5229;41.820;23.490;2022-07-12T07:26:27;1.50;;;1.38;;
10365;SDS011;5229;41.820;23.490;2022-07-12T07:28:53;1.60;;;1.40;;
10365;SDS011;5229;41.820;23.490;2022-07-12T07:31:37;2.35;;;1.42;;
10365;SDS011;5229;41.820;23.490;2022-07-12T07:34:05;1.50;;;1.40;;
10365;SDS011;5229;41.820;23.490;2022-07-12T07:36:33;1.88;;;1.38;;
10365;SDS011;5229;41.820;23.490;2022-07-12T07:39:00;1.75;;;1.50;;
10365;SDS011;5229;41.820;23.490;2022-07-12T07:41:27;1.80;;;1.30;;
10365;SDS011;5229;41.820;23.490;2022-07-12T07:43:54;1.52;;;1.40;;
10365;SDS011;5229;41.820;23.490;2022-07-12T07:46:21;1.45;;;1.35;;
10365;SDS011;5229;41.820;23.490;2022-07-12T07:48:48;1.25;;;1.17;;
10365;SDS011;5229;41.820;23.490;2022-07-12T07:51:15;1.40;;;1.25;;
10365;SDS011;5229;41.820;23.490;2022-07-12T07:53:43;2.35;;;1.52;;
10365;SDS011;5229;41.820;23.490;2022-07-12T07:56:10;2.17;;;1.30;;
10365;SDS011;5229;41.820;23.490;2022-07-12T07:58:36;2.13;;;1.40;;
10365;SDS011;5229;41.820;23.490;2022-07-12T08:01:03;1.33;;;1.23;;
10365;SDS011;5229;41.820;23.490;2022-07-12T08:03:30;1.58;;;1.30;;
10365;SDS011;5229;41.820;23.490;2022-07-12T08:05:57;1.40;;;1.30;;
10365;SDS011;5229;41.820;23.490;2022-07-12T08:08:25;2.42;;;1.23;;
10365;SDS011;5229;41.820;23.490;2022-07-12T08:10:54;1.30;;;1.20;;
10365;SDS011;5229;41.820;23.490;2022-07-12T08:13:21;2.05;;;1.08;;
10365;SDS011;5229;41.820;23.490;2022-07-12T08:15:48;1.63;;;1.40;;
10365;SDS011;5229;41.820;23.490;2022-07-12T08:18:15;1.55;;;0.98;;
10365;SDS011;5229;41.820;23.490;2022-07-12T08:20:42;1.38;;;1.27;;
10365;SDS011;5229;41.820;23.490;2022-07-12T08:23:10;1.10;;;1.00;;
10365;SDS011;5229;41.820;23.490;2022-07-12T08:25:37;1.25;;;1.15;;
10365;SDS011;5229;41.820;23.490;2022-07-12T08:28:05;2.00;;;1.27;;
10365;SDS011;5229;41.820;23.490;2022-07-12T08:30:32;1.45;;;1.10;;
10365;SDS011;5229;41.820;23.490;2022-07-12T08:32:59;1.38;;;1.27;;
10365;SDS011;5229;41.820;23.490;2022-07-12T08:35:26;1.33;;;1.23;;
10365;SDS011;5229;41.820;23.490;2022-07-12T08:37:53;1.90;;;1.10;;
10365;SDS011;5229;41.820;23.490;2022-07-12T08:40:20;2.40;;;1.20;;
10365;SDS011;5229;41.820;23.490;2022-07-12T08:42:46;3.53;;;1.40;;
10365;SDS011;5229;41.820;23.490;2022-07-12T08:45:15;1.77;;;1.50;;
10365;SDS011;5229;41.820;23.490;2022-07-12T08:47:42;1.33;;;1.20;;
10365;SDS011;5229;41.820;23.490;2022-07-12T08:50:09;0.93;;;0.93;;
10365;SDS011;5229;41.820;23.490;2022-07-12T08:52:42;1.15;;;1.10;;
10365;SDS011;5229;41.820;23.490;2022-07-12T08:55:20;0.80;;;0.80;;
10365;SDS011;5229;41.820;23.490;2022-07-12T08:57:49;1.00;;;1.00;;
10365;SDS011;5229;41.820;23.490;2022-07-12T09:00:19;1.63;;;1.20;;
10365;SDS011;5229;41.820;23.490;2022-07-12T09:02:46;2.58;;;1.20;;
10365;SDS011;5229;41.820;23.490;2022-07-12T09:05:15;3.15;;;1.60;;
10365;SDS011;5229;41.820;23.490;2022-07-12T09:07:42;1.52;;;1.40;;
10365;SDS011;5229;41.820;23.490;2022-07-12T09:10:10;2.28;;;1.25;;
10365;SDS011;5229;41.820;23.490;2022-07-12T09:12:37;1.42;;;1.33;;
10365;SDS011;5229;41.820;23.490;2022-07-12T09:15:15;1.33;;;1.15;;
10365;SDS011;5229;41.820;23.490;2022-07-12T09:17:56;1.73;;;1.63;;
10365;SDS011;5229;41.820;23.490;2022-07-12T09:20:27;1.58;;;1.48;;
10365;SDS011;5229;41.820;23.490;2022-07-12T09:22:55;2.35;;;1.30;;
10365;SDS011;5229;41.820;23.490;2022-07-12T09:25:23;2.45;;;1.25;;
10365;SDS011;5229;41.820;23.490;2022-07-12T09:27:51;0.98;;;0.98;;
10365;SDS011;5229;41.820;23.490;2022-07-12T09:30:19;2.53;;;2.03;;
10365;SDS011;5229;41.820;23.490;2022-07-12T09:32:51;1.20;;;1.10;;
10365;SDS011;5229;41.820;23.490;2022-07-12T09:35:38;2.17;;;1.63;;
10365;SDS011;5229;41.820;23.490;2022-07-12T09:38:23;1.00;;;1.00;;
10365;SDS011;5229;41.820;23.490;2022-07-12T09:40:50;1.42;;;1.23;;
10365;SDS011;5229;41.820;23.490;2022-07-12T09:43:18;1.23;;;1.05;;
10365;SDS011;5229;41.820;23.490;2022-07-12T09:45:46;1.00;;;1.00;;
10365;SDS011;5229;41.820;23.490;2022-07-12T09:48:13;1.15;;;1.05;;
10365;SDS011;5229;41.820;23.490;2022-07-12T09:50:43;1.38;;;0.90;;
10365;SDS011;5229;41.820;23.490;2022-07-12T09:53:15;1.02;;;1.00;;
10365;SDS011;5229;41.820;23.490;2022-07-12T09:55:49;2.83;;;1.30;;
10365;SDS011;5229;41.820;23.490;2022-07-12T09:58:19;0.90;;;0.90;;
10365;SDS011;5229;41.820;23.490;2022-07-12T10:00:49;2.92;;;0.90;;
10365;SDS011;5229;41.820;23.490;2022-07-12T10:03:18;1.65;;;0.85;;
10365;SDS011;5229;41.820;23.490;2022-07-12T10:05:49;1.10;;;1.00;;
10365;SDS011;5229;41.820;23.490;2022-07-12T10:08:16;0.73;;;0.70;;
10365;SDS011;5229;41.820;23.490;2022-07-12T10:10:45;0.88;;;0.80;;
10365;SDS011;5229;41.820;23.490;2022-07-12T10:13:13;1.00;;;0.70;;
10365;SDS011;5229;41.820;23.490;2022-07-12T10:15:40;3.70;;;1.05;;
10365;SDS011;5229;41.820;23.490;2022-07-12T10:18:14;1.05;;;0.90;;
10365;SDS011;5229;41.820;23.490;2022-07-12T10:20:43;0.80;;;0.80;;
10365;SDS011;5229;41.820;23.490;2022-07-12T10:29:04;0.77;;;0.77;;
10365;SDS011;5229;41.820;23.490;2022-07-12T10:31:33;1.73;;;0.82;;
10365;SDS011;5229;41.820;23.490;2022-07-12T10:34:11;1.13;;;1.00;;
10365;SDS011;5229;41.820;23.490;2022-07-12T10:37:07;1.02;;;0.93;;
10365;SDS011;5229;41.820;23.490;2022-07-12T10:39:37;1.77;;;0.93;;
10365;SDS011;5229;41.820;23.490;2022-07-12T10:42:16;0.63;;;0.63;;
10365;SDS011;5229;41.820;23.490;2022-07-12T10:44:45;0.80;;;0.80;;
10365;SDS011;5229;41.820;23.490;2022-07-12T10:47:14;1.60;;;0.90;;
10365;SDS011;5229;41.820;23.490;2022-07-12T10:49:46;0.70;;;0.70;;
10365;SDS011;5229;41.820;23.490;2022-07-12T10:52:14;1.58;;;0.90;;
10365;SDS011;5229;41.820;23.490;2022-07-12T10:54:46;0.90;;;0.90;;
10365;SDS011;5229;41.820;23.490;2022-07-12T10:57:16;1.08;;;0.98;;
10365;SDS011;5229;41.820;23.490;2022-07-12T11:00:04;1.00;;;1.00;;
10365;SDS011;5229;41.820;23.490;2022-07-12T11:02:33;1.10;;;1.00;;
10365;SDS011;5229;41.820;23.490;2022-07-12T11:05:00;4.00;;;1.27;;
10365;SDS011;5229;41.820;23.490;2022-07-12T11:07:27;1.33;;;1.00;;
10365;SDS011;5229;41.820;23.490;2022-07-12T11:09:54;1.48;;;0.93;;
10365;SDS011;5229;41.820;23.490;2022-07-12T11:12:28;1.42;;;1.23;;
10365;SDS011;5229;41.820;23.490;2022-07-12T11:14:55;2.72;;;1.30;;
10365;SDS011;5229;41.820;23.490;2022-07-12T11:17:25;1.75;;;1.20;;
10365;SDS011;5229;41.820;23.490;2022-07-12T11:20:02;1.00;;;1.00;;
10365;SDS011;5229;41.820;23.490;2022-07-12T11:22:34;1.30;;;1.20;;
10365;SDS011;5229;41.820;23.490;2022-07-12T11:25:02;4.55;;;1.10;;
10365;SDS011;5229;41.820;23.490;2022-07-12T11:27:30;1.10;;;1.10;;
10365;SDS011;5229;41.820;23.490;2022-07-12T11:29:57;1.33;;;1.23;;
10365;SDS011;5229;41.820;23.490;2022-07-12T11:32:34;1.58;;;1.10;;
10365;SDS011;5229;41.820;23.490;2022-07-12T11:35:03;1.60;;;1.20;;
10365;SDS011;5229;41.820;23.490;2022-07-12T11:37:30;1.02;;;1.02;;
10365;SDS011;5229;41.820;23.490;2022-07-12T11:39:57;1.58;;;1.30;;
10365;SDS011;5229;41.820;23.490;2022-07-12T11:42:24;1.13;;;1.00;;
10365;SDS011;5229;41.820;23.490;2022-07-12T11:44:52;0.98;;;0.98;;
10365;SDS011;5229;41.820;23.490;2022-07-12T11:47:21;2.15;;;1.40;;
10365;SDS011;5229;41.820;23.490;2022-07-12T11:49:49;1.95;;;1.00;;
10365;SDS011;5229;41.820;23.490;2022-07-12T11:52:17;1.20;;;1.10;;
10365;SDS011;5229;41.820;23.490;2022-07-12T11:54:46;1.63;;;1.00;;
10365;SDS011;5229;41.820;23.490;2022-07-12T11:57:14;1.20;;;1.10;;
10365;SDS011;5229;41.820;23.490;2022-07-12T11:59:44;2.03;;;1.17;;
10365;SDS011;5229;41.820;23.490;2022-07-12T12:02:13;1.73;;;1.30;;
10365;SDS011;5229;41.820;23.490;2022-07-12T12:04:45;3.97;;;1.25;;
10365;SDS011;5229;41.820;23.490;2022-07-12T12:07:13;1.48;;;0.70;;
10365;SDS011;5229;41.820;23.490;2022-07-12T12:10:00;1.35;;;1.10;;
10365;SDS011;5229;41.820;23.490;2022-07-12T12:12:34;3.03;;;1.38;;
10365;SDS011;5229;41.820;23.490;2022-07-12T12:15:03;1.30;;;1.20;;
10365;SDS011;5229;41.820;23.490;2022-07-12T12:17:33;1.15;;;1.08;;
10365;SDS011;5229;41.820;23.490;2022-07-12T12:20:08;1.65;;;1.20;;
10365;SDS011;5229;41.820;23.490;2022-07-12T12:22:36;1.52;;;1.10;;
10365;SDS011;5229;41.820;23.490;2022-07-12T12:25:03;1.73;;;1.35;;
10365;SDS011;5229;41.820;23.490;2022-07-12T12:27:45;1.30;;;1.20;;
10365;SDS011;5229;41.820;23.490;2022-07-12T12:30:14;1.10;;;1.10;;
10365;SDS011;5229;41.820;23.490;2022-07-12T12:32:45;1.77;;;0.98;;
10365;SDS011;5229;41.820;23.490;2022-07-12T12:35:12;1.27;;;1.10;;
10365;SDS011;5229;41.820;23.490;2022-07-12T12:37:40;1.35;;;1.20;;
10365;SDS011;5229;41.820;23.490;2022-07-12T12:40:08;2.70;;;1.10;;
10365;SDS011;5229;41.820;23.490;2022-07-12T12:42:36;2.83;;;1.17;;
10365;SDS011;5229;41.820;23.490;2022-07-12T12:45:03;1.23;;;1.13;;
10365;SDS011;5229;41.820;23.490;2022-07-12T12:47:30;4.20;;;1.20;;
10365;SDS011;5229;41.820;23.490;2022-07-12T12:53:15;1.45;;;1.02;;
10365;SDS011;5229;41.820;23.490;2022-07-12T12:55:43;2.03;;;1.15;;
10365;SDS011;5229;41.820;23.490;2022-07-12T12:58:13;3.05;;;1.15;;
10365;SDS011;5229;41.820;23.490;2022-07-12T13:00:41;1.88;;;1.10;;
10365;SDS011;5229;41.820;23.490;2022-07-12T13:03:12;1.13;;;1.02;;
10365;SDS011;5229;41.820;23.490;2022-07-12T13:05:40;2.15;;;1.23;;
10365;SDS011;5229;41.820;23.490;2022-07-12T13:08:07;1.00;;;0.90;;
10365;SDS011;5229;41.820;23.490;2022-07-12T13:10:35;3.93;;;1.40;;
10365;SDS011;5229;41.820;23.490;2022-07-12T13:13:03;1.30;;;1.20;;
10365;SDS011;5229;41.820;23.490;2022-07-12T13:15:30;1.00;;;0.90;;
10365;SDS011;5229;41.820;23.490;2022-07-12T13:17:58;1.00;;;1.00;;
10365;SDS011;5229;41.820;23.490;2022-07-12T13:20:28;2.30;;;1.25;;
10365;SDS011;5229;41.820;23.490;2022-07-12T13:22:56;2.53;;;1.07;;
10365;SDS011;5229;41.820;23.490;2022-07-12T13:25:23;1.42;;;1.13;;
10365;SDS011;5229;41.820;23.490;2022-07-12T13:27:51;1.47;;;1.10;;
10365;SDS011;5229;41.820;23.490;2022-07-12T13:30:18;1.10;;;1.00;;
10365;SDS011;5229;41.820;23.490;2022-07-12T13:32:46;0.98;;;0.88;;
10365;SDS011;5229;41.820;23.490;2022-07-12T13:35:13;1.58;;;1.17;;
10365;SDS011;5229;41.820;23.490;2022-07-12T13:37:42;0.93;;;0.93;;
10365;SDS011;5229;41.820;23.490;2022-07-12T13:40:09;1.00;;;0.90;;
10365;SDS011;5229;41.820;23.490;2022-07-12T13:42:42;1.50;;;1.02;;
10365;SDS011;5229;41.820;23.490;2022-07-12T13:45:11;1.15;;;0.98;;
10365;SDS011;5229;41.820;23.490;2022-07-12T13:47:39;1.50;;;1.10;;
10365;SDS011;5229;41.820;23.490;2022-07-12T13:50:07;0.98;;;0.88;;
10365;SDS011;5229;41.820;23.490;2022-07-12T13:52:35;1.05;;;0.95;;
10365;SDS011;5229;41.820;23.490;2022-07-12T13:55:03;1.30;;;1.00;;
10365;SDS011;5229;41.820;23.490;2022-07-12T13:57:31;2.10;;;0.85;;
10365;SDS011;5229;41.820;23.490;2022-07-12T13:59:58;1.90;;;0.80;;
10365;SDS011;5229;41.820;23.490;2022-07-12T14:02:26;1.45;;;1.10;;
10365;SDS011;5229;41.820;23.490;2022-07-12T14:04:53;1.83;;;1.03;;
10365;SDS011;5229;41.820;23.490;2022-07-12T14:07:20;0.80;;;0.80;;
10365;SDS011;5229;41.820;23.490;2022-07-12T14:09:47;1.77;;;0.98;;
10365;SDS011;5229;41.820;23.490;2022-07-12T14:12:15;1.45;;;1.00;;
10365;SDS011;5229;41.820;23.490;2022-07-12T14:14:42;0.73;;;0.73;;
10365;SDS011;5229;41.820;23.490;2022-07-12T14:17:31;1.10;;;1.00;;
10365;SDS011;5229;41.820;23.490;2022-07-12T14:19:59;0.80;;;0.80;;
10365;SDS011;5229;41.820;23.490;2022-07-12T14:22:26;0.97;;;0.83;;
10365;SDS011;5229;41.820;23.490;2022-07-12T14:24:54;0.90;;;0.90;;
10365;SDS011;5229;41.820;23.490;2022-07-12T14:27:22;1.08;;;1.05;;
10365;SDS011;5229;41.820;23.490;2022-07-12T14:29:49;0.97;;;0.97;;
10365;SDS011;5229;41.820;23.490;2022-07-12T14:32:16;4.70;;;0.80;;
10365;SDS011;5229;41.820;23.490;2022-07-12T14:34:43;0.67;;;0.67;;
10365;SDS011;5229;41.820;23.490;2022-07-12T14:37:10;1.13;;;1.03;;
10365;SDS011;5229;41.820;23.490;2022-07-12T14:39:37;1.10;;;1.00;;
10365;SDS011;5229;41.820;23.490;2022-07-12T14:42:04;1.23;;;1.07;;
10365;SDS011;5229;41.820;23.490;2022-07-12T14:44:32;0.80;;;0.80;;
10365;SDS011;5229;41.820;23.490;2022-07-12T14:46:59;1.57;;;0.80;;
10365;SDS011;5229;41.820;23.490;2022-07-12T14:49:26;0.77;;;0.67;;
10365;SDS011;5229;41.820;23.490;2022-07-12T14:51:54;1.67;;;1.00;;
10365;SDS011;5229;41.820;23.490;2022-07-12T14:54:22;1.17;;;0.90;;
10365;SDS011;5229;41.820;23.490;2022-07-12T14:56:48;1.70;;;0.87;;
10365;SDS011;5229;41.820;23.490;2022-07-12T14:59:15;1.10;;;0.90;;
10365;SDS011;5229;41.820;23.490;2022-07-12T15:01:43;0.80;;;0.80;;
10365;SDS011;5229;41.820;23.490;2022-07-12T15:04:10;1.20;;;1.00;;